sensor_id;sensor_type;location;lat;lon;timestamp;P1;durP1;ratioP1;P2;durP2;ratioP2
14472;SDS011;7322;50.872;4.386;2023-01-16T00:00:40;2.27;;;1.40;;
14472;SDS011;7322;50.872;4.386;2023-01-16T00:03:08;2.50;;;1.40;;
14472;SDS011;7322;50.872;4.386;2023-01-16T00:05:37;2.63;;;1.40;;
14472;SDS011;7322;50.872;4.386;2023-01-16T00:08:05;1.77;;;1.30;;
14472;SDS011;7322;50.872;4.386;2023-01-16T00:10:38;1.43;;;1.30;;
14472;SDS011;7322;50.872;4.386;2023-01-16T00:13:05;1.47;;;1.30;;
14472;SDS011;7322;50.872;4.386;2023-01-16T00:15:33;1.70;;;1.20;;
14472;SDS011;7322;50.872;4.386;2023-01-16T00:18:02;1.43;;;1.33;;
14472;SDS011;7322;50.872;4.386;2023-01-16T00:20:30;2.50;;;1.30;;
14472;SDS011;7322;50.872;4.386;2023-01-16T00:23:03;2.20;;;1.43;;
14472;SDS011;7322;50.872;4.386;2023-01-16T00:25:38;1.70;;;1.30;;
14472;SDS011;7322;50.872;4.386;2023-01-16T00:28:07;1.20;;;1.10;;
14472;SDS011;7322;50.872;4.386;2023-01-16T00:30:38;1.90;;;1.37;;
14472;SDS011;7322;50.872;4.386;2023-01-16T00:33:08;1.93;;;1.40;;
14472;SDS011;7322;50.872;4.386;2023-01-16T00:35:45;1.97;;;1.23;;
14472;SDS011;7322;50.872;4.386;2023-01-16T00:38:13;1.67;;;1.10;;
14472;SDS011;7322;50.872;4.386;2023-01-16T00:40:44;1.50;;;1.10;;
14472;SDS011;7322;50.872;4.386;2023-01-16T00:43:22;1.10;;;1.00;;
14472;SDS011;7322;50.872;4.386;2023-01-16T00:45:57;2.07;;;1.30;;
14472;SDS011;7322;50.872;4.386;2023-01-16T00:48:31;1.90;;;1.17;;
14472;SDS011;7322;50.872;4.386;2023-01-16T00:51:00;2.33;;;1.40;;
14472;SDS011;7322;50.872;4.386;2023-01-16T00:53:33;1.80;;;1.13;;
14472;SDS011;7322;50.872;4.386;2023-01-16T00:55:59;1.43;;;1.10;;
14472;SDS011;7322;50.872;4.386;2023-01-16T00:58:32;2.10;;;1.30;;
14472;SDS011;7322;50.872;4.386;2023-01-16T01:01:01;2.43;;;1.40;;
14472;SDS011;7322;50.872;4.386;2023-01-16T01:03:38;1.73;;;1.20;;
14472;SDS011;7322;50.872;4.386;2023-01-16T01:06:07;1.73;;;1.37;;
14472;SDS011;7322;50.872;4.386;2023-01-16T01:08:38;1.97;;;1.20;;
14472;SDS011;7322;50.872;4.386;2023-01-16T01:11:07;1.10;;;1.00;;
14472;SDS011;7322;50.872;4.386;2023-01-16T01:13:48;1.60;;;1.00;;
14472;SDS011;7322;50.872;4.386;2023-01-16T01:16:16;2.17;;;1.20;;
14472;SDS011;7322;50.872;4.386;2023-01-16T01:18:49;1.63;;;1.17;;
14472;SDS011;7322;50.872;4.386;2023-01-16T01:21:18;1.80;;;1.30;;
14472;SDS011;7322;50.872;4.386;2023-01-16T01:23:56;1.47;;;1.17;;
14472;SDS011;7322;50.872;4.386;2023-01-16T01:26:32;1.30;;;1.13;;
14472;SDS011;7322;50.872;4.386;2023-01-16T01:29:00;1.43;;;1.00;;
14472;SDS011;7322;50.872;4.386;2023-01-16T01:31:44;1.70;;;1.00;;
14472;SDS011;7322;50.872;4.386;2023-01-16T01:34:27;0.93;;;0.83;;
14472;SDS011;7322;50.872;4.386;2023-01-16T01:37:10;1.60;;;1.07;;
14472;SDS011;7322;50.872;4.386;2023-01-16T01:39:38;1.80;;;1.10;;
14472;SDS011;7322;50.872;4.386;2023-01-16T01:42:09;1.30;;;0.90;;
14472;SDS011;7322;50.872;4.386;2023-01-16T01:45:00;2.33;;;1.20;;
14472;SDS011;7322;50.872;4.386;2023-01-16T01:47:39;2.23;;;1.20;;
14472;SDS011;7322;50.872;4.386;2023-01-16T01:50:18;1.50;;;1.10;;
14472;SDS011;7322;50.872;4.386;2023-01-16T01:55:31;1.50;;;1.20;;
14472;SDS011;7322;50.872;4.386;2023-01-16T01:57:59;1.10;;;0.90;;
14472;SDS011;7322;50.872;4.386;2023-01-16T02:00:30;1.63;;;1.00;;
14472;SDS011;7322;50.872;4.386;2023-01-16T02:03:04;1.37;;;0.97;;
14472;SDS011;7322;50.872;4.386;2023-01-16T02:05:39;1.83;;;1.20;;
14472;SDS011;7322;50.872;4.386;2023-01-16T02:10:53;1.17;;;0.80;;
14472;SDS011;7322;50.872;4.386;2023-01-16T02:13:32;1.60;;;0.90;;
14472;SDS011;7322;50.872;4.386;2023-01-16T02:16:07;1.87;;;1.00;;
14472;SDS011;7322;50.872;4.386;2023-01-16T02:18:52;1.90;;;1.10;;
14472;SDS011;7322;50.872;4.386;2023-01-16T02:21:50;2.00;;;1.20;;
14472;SDS011;7322;50.872;4.386;2023-01-16T02:24:51;1.70;;;1.20;;
14472;SDS011;7322;50.872;4.386;2023-01-16T02:27:43;3.03;;;1.20;;
14472;SDS011;7322;50.872;4.386;2023-01-16T02:30:35;1.03;;;0.90;;
14472;SDS011;7322;50.872;4.386;2023-01-16T02:36:42;1.10;;;0.90;;
14472;SDS011;7322;50.872;4.386;2023-01-16T02:39:34;1.80;;;1.07;;
14472;SDS011;7322;50.872;4.386;2023-01-16T02:42:10;1.20;;;1.00;;
14472;SDS011;7322;50.872;4.386;2023-01-16T02:44:49;1.17;;;0.90;;
14472;SDS011;7322;50.872;4.386;2023-01-16T02:50:04;1.13;;;1.00;;
14472;SDS011;7322;50.872;4.386;2023-01-16T02:52:56;1.33;;;0.93;;
14472;SDS011;7322;50.872;4.386;2023-01-16T02:58:14;1.87;;;1.23;;
14472;SDS011;7322;50.872;4.386;2023-01-16T03:00:48;1.73;;;1.00;;
14472;SDS011;7322;50.872;4.386;2023-01-16T03:03:26;1.40;;;1.00;;
14472;SDS011;7322;50.872;4.386;2023-01-16T03:06:16;1.00;;;0.70;;
14472;SDS011;7322;50.872;4.386;2023-01-16T03:09:08;1.73;;;1.07;;
14472;SDS011;7322;50.872;4.386;2023-01-16T03:12:06;1.13;;;1.00;;
14472;SDS011;7322;50.872;4.386;2023-01-16T03:14:55;1.63;;;1.07;;
14472;SDS011;7322;50.872;4.386;2023-01-16T03:17:48;1.20;;;1.10;;
14472;SDS011;7322;50.872;4.386;2023-01-16T03:20:36;1.13;;;0.90;;
14472;SDS011;7322;50.872;4.386;2023-01-16T03:26:04;1.43;;;1.00;;
14472;SDS011;7322;50.872;4.386;2023-01-16T03:28:39;1.60;;;0.90;;
14472;SDS011;7322;50.872;4.386;2023-01-16T03:31:25;1.17;;;0.80;;
14472;SDS011;7322;50.872;4.386;2023-01-16T03:34:10;1.30;;;0.90;;
14472;SDS011;7322;50.872;4.386;2023-01-16T03:39:50;0.97;;;0.90;;
14472;SDS011;7322;50.872;4.386;2023-01-16T03:48:00;1.40;;;1.00;;
14472;SDS011;7322;50.872;4.386;2023-01-16T03:50:33;0.60;;;0.60;;
14472;SDS011;7322;50.872;4.386;2023-01-16T03:53:06;2.23;;;0.97;;
14472;SDS011;7322;50.872;4.386;2023-01-16T03:55:39;1.20;;;1.00;;
14472;SDS011;7322;50.872;4.386;2023-01-16T03:58:26;1.10;;;0.80;;
14472;SDS011;7322;50.872;4.386;2023-01-16T04:00:59;1.60;;;1.00;;
14472;SDS011;7322;50.872;4.386;2023-01-16T04:06:22;1.33;;;0.90;;
14472;SDS011;7322;50.872;4.386;2023-01-16T04:09:05;0.87;;;0.80;;
14472;SDS011;7322;50.872;4.386;2023-01-16T04:14:30;1.80;;;0.87;;
14472;SDS011;7322;50.872;4.386;2023-01-16T04:17:02;2.07;;;1.00;;
14472;SDS011;7322;50.872;4.386;2023-01-16T04:19:32;1.20;;;0.70;;
14472;SDS011;7322;50.872;4.386;2023-01-16T04:22:05;1.17;;;0.73;;
14472;SDS011;7322;50.872;4.386;2023-01-16T04:24:34;1.23;;;0.80;;
14472;SDS011;7322;50.872;4.386;2023-01-16T04:27:03;0.80;;;0.67;;
14472;SDS011;7322;50.872;4.386;2023-01-16T04:29:32;1.37;;;0.67;;
14472;SDS011;7322;50.872;4.386;2023-01-16T04:32:00;1.33;;;0.90;;
14472;SDS011;7322;50.872;4.386;2023-01-16T04:34:28;1.63;;;0.87;;
14472;SDS011;7322;50.872;4.386;2023-01-16T04:37:01;0.83;;;0.60;;
14472;SDS011;7322;50.872;4.386;2023-01-16T04:39:30;1.97;;;0.90;;
14472;SDS011;7322;50.872;4.386;2023-01-16T04:42:04;1.33;;;0.90;;
14472;SDS011;7322;50.872;4.386;2023-01-16T04:44:45;1.97;;;1.00;;
14472;SDS011;7322;50.872;4.386;2023-01-16T04:49:53;1.60;;;0.80;;
14472;SDS011;7322;50.872;4.386;2023-01-16T04:55:01;1.30;;;0.90;;
14472;SDS011;7322;50.872;4.386;2023-01-16T04:57:32;1.93;;;1.00;;
14472;SDS011;7322;50.872;4.386;2023-01-16T04:59:59;2.33;;;0.90;;
14472;SDS011;7322;50.872;4.386;2023-01-16T05:05:11;1.23;;;0.83;;
14472;SDS011;7322;50.872;4.386;2023-01-16T05:07:38;1.30;;;0.90;;
14472;SDS011;7322;50.872;4.386;2023-01-16T05:13:03;1.70;;;1.00;;
14472;SDS011;7322;50.872;4.386;2023-01-16T05:15:38;1.97;;;1.00;;
14472;SDS011;7322;50.872;4.386;2023-01-16T05:20:59;1.13;;;0.80;;
14472;SDS011;7322;50.872;4.386;2023-01-16T05:26:38;1.33;;;0.80;;
14472;SDS011;7322;50.872;4.386;2023-01-16T05:29:06;1.10;;;0.77;;
14472;SDS011;7322;50.872;4.386;2023-01-16T05:31:39;0.90;;;0.80;;
14472;SDS011;7322;50.872;4.386;2023-01-16T05:34:15;2.27;;;0.80;;
14472;SDS011;7322;50.872;4.386;2023-01-16T05:36:42;1.47;;;0.80;;
14472;SDS011;7322;50.872;4.386;2023-01-16T05:39:22;0.97;;;0.70;;
14472;SDS011;7322;50.872;4.386;2023-01-16T05:42:04;1.53;;;0.87;;
14472;SDS011;7322;50.872;4.386;2023-01-16T05:47:35;1.73;;;0.80;;
14472;SDS011;7322;50.872;4.386;2023-01-16T05:50:03;1.13;;;0.87;;
14472;SDS011;7322;50.872;4.386;2023-01-16T05:52:31;1.83;;;0.90;;
14472;SDS011;7322;50.872;4.386;2023-01-16T05:55:05;1.27;;;0.80;;
14472;SDS011;7322;50.872;4.386;2023-01-16T05:57:32;1.20;;;0.63;;
14472;SDS011;7322;50.872;4.386;2023-01-16T06:00:02;1.80;;;0.70;;
14472;SDS011;7322;50.872;4.386;2023-01-16T06:02:32;0.73;;;0.63;;
14472;SDS011;7322;50.872;4.386;2023-01-16T06:05:00;2.37;;;0.80;;
14472;SDS011;7322;50.872;4.386;2023-01-16T06:07:28;1.60;;;0.90;;
14472;SDS011;7322;50.872;4.386;2023-01-16T06:09:58;1.87;;;0.80;;
14472;SDS011;7322;50.872;4.386;2023-01-16T06:12:26;1.57;;;0.77;;
14472;SDS011;7322;50.872;4.386;2023-01-16T06:14:53;1.50;;;0.80;;
14472;SDS011;7322;50.872;4.386;2023-01-16T06:17:21;0.60;;;0.57;;
14472;SDS011;7322;50.872;4.386;2023-01-16T06:22:26;1.27;;;0.70;;
14472;SDS011;7322;50.872;4.386;2023-01-16T06:24:59;1.03;;;0.80;;
14472;SDS011;7322;50.872;4.386;2023-01-16T06:27:33;1.33;;;0.90;;
14472;SDS011;7322;50.872;4.386;2023-01-16T06:30:07;2.13;;;0.70;;
14472;SDS011;7322;50.872;4.386;2023-01-16T06:32:37;0.90;;;0.70;;
14472;SDS011;7322;50.872;4.386;2023-01-16T06:35:18;1.17;;;0.90;;
14472;SDS011;7322;50.872;4.386;2023-01-16T06:40:15;2.10;;;0.77;;
14472;SDS011;7322;50.872;4.386;2023-01-16T06:45:38;1.93;;;0.80;;
14472;SDS011;7322;50.872;4.386;2023-01-16T06:48:13;2.47;;;1.10;;
14472;SDS011;7322;50.872;4.386;2023-01-16T06:53:33;2.80;;;0.90;;
14472;SDS011;7322;50.872;4.386;2023-01-16T06:56:06;2.30;;;0.80;;
14472;SDS011;7322;50.872;4.386;2023-01-16T06:58:35;1.87;;;0.80;;
14472;SDS011;7322;50.872;4.386;2023-01-16T07:03:48;2.67;;;1.20;;
14472;SDS011;7322;50.872;4.386;2023-01-16T07:06:18;1.50;;;1.00;;
14472;SDS011;7322;50.872;4.386;2023-01-16T07:08:51;1.20;;;0.77;;
14472;SDS011;7322;50.872;4.386;2023-01-16T07:11:23;1.47;;;0.70;;
14472;SDS011;7322;50.872;4.386;2023-01-16T07:14:06;2.57;;;1.00;;
14472;SDS011;7322;50.872;4.386;2023-01-16T07:16:53;1.73;;;0.90;;
14472;SDS011;7322;50.872;4.386;2023-01-16T07:19:42;1.93;;;0.90;;
14472;SDS011;7322;50.872;4.386;2023-01-16T07:22:40;2.03;;;0.90;;
14472;SDS011;7322;50.872;4.386;2023-01-16T07:34:03;3.90;;;1.17;;
14472;SDS011;7322;50.872;4.386;2023-01-16T07:36:31;1.40;;;0.97;;
14472;SDS011;7322;50.872;4.386;2023-01-16T07:39:10;2.97;;;0.80;;
14472;SDS011;7322;50.872;4.386;2023-01-16T07:41:38;0.93;;;0.70;;
14472;SDS011;7322;50.872;4.386;2023-01-16T07:44:07;2.57;;;1.00;;
14472;SDS011;7322;50.872;4.386;2023-01-16T07:46:34;1.43;;;1.10;;
14472;SDS011;7322;50.872;4.386;2023-01-16T07:49:08;1.67;;;1.00;;
14472;SDS011;7322;50.872;4.386;2023-01-16T07:51:38;2.03;;;1.07;;
14472;SDS011;7322;50.872;4.386;2023-01-16T07:54:09;1.70;;;1.07;;
14472;SDS011;7322;50.872;4.386;2023-01-16T07:56:38;1.10;;;0.90;;
14472;SDS011;7322;50.872;4.386;2023-01-16T07:59:06;1.90;;;0.90;;
14472;SDS011;7322;50.872;4.386;2023-01-16T08:01:33;2.60;;;1.03;;
14472;SDS011;7322;50.872;4.386;2023-01-16T08:04:00;2.53;;;1.13;;
14472;SDS011;7322;50.872;4.386;2023-01-16T08:06:29;4.17;;;1.10;;
14472;SDS011;7322;50.872;4.386;2023-01-16T08:08:58;3.10;;;1.23;;
14472;SDS011;7322;50.872;4.386;2023-01-16T08:11:28;3.37;;;1.20;;
14472;SDS011;7322;50.872;4.386;2023-01-16T08:14:05;8.00;;;1.47;;
14472;SDS011;7322;50.872;4.386;2023-01-16T08:16:33;2.77;;;1.20;;
14472;SDS011;7322;50.872;4.386;2023-01-16T08:19:08;4.60;;;1.20;;
14472;SDS011;7322;50.872;4.386;2023-01-16T08:24:29;3.63;;;1.00;;
14472;SDS011;7322;50.872;4.386;2023-01-16T08:27:07;2.60;;;1.03;;
14472;SDS011;7322;50.872;4.386;2023-01-16T08:29:34;3.10;;;1.20;;
14472;SDS011;7322;50.872;4.386;2023-01-16T08:32:01;1.63;;;1.13;;
14472;SDS011;7322;50.872;4.386;2023-01-16T08:34:29;2.17;;;0.90;;
14472;SDS011;7322;50.872;4.386;2023-01-16T08:36:57;3.60;;;1.13;;
14472;SDS011;7322;50.872;4.386;2023-01-16T08:39:36;2.60;;;1.20;;
14472;SDS011;7322;50.872;4.386;2023-01-16T08:42:05;2.27;;;0.80;;
14472;SDS011;7322;50.872;4.386;2023-01-16T08:45:01;2.87;;;1.00;;
14472;SDS011;7322;50.872;4.386;2023-01-16T08:47:51;1.57;;;0.70;;
14472;SDS011;7322;50.872;4.386;2023-01-16T08:50:41;4.57;;;1.10;;
14472;SDS011;7322;50.872;4.386;2023-01-16T08:53:27;2.87;;;0.97;;
14472;SDS011;7322;50.872;4.386;2023-01-16T08:55:54;2.63;;;0.90;;
14472;SDS011;7322;50.872;4.386;2023-01-16T08:58:23;2.83;;;1.10;;
14472;SDS011;7322;50.872;4.386;2023-01-16T09:00:50;3.27;;;0.93;;
14472;SDS011;7322;50.872;4.386;2023-01-16T09:03:17;4.77;;;1.00;;
14472;SDS011;7322;50.872;4.386;2023-01-16T09:05:44;2.30;;;0.83;;
14472;SDS011;7322;50.872;4.386;2023-01-16T09:08:12;2.33;;;0.90;;
14472;SDS011;7322;50.872;4.386;2023-01-16T09:10:39;2.50;;;1.07;;
14472;SDS011;7322;50.872;4.386;2023-01-16T09:13:28;1.47;;;0.93;;
14472;SDS011;7322;50.872;4.386;2023-01-16T09:16:12;3.80;;;0.97;;
14472;SDS011;7322;50.872;4.386;2023-01-16T09:18:39;2.00;;;0.93;;
14472;SDS011;7322;50.872;4.386;2023-01-16T09:21:06;1.97;;;0.70;;
14472;SDS011;7322;50.872;4.386;2023-01-16T09:29:09;2.47;;;0.80;;
14472;SDS011;7322;50.872;4.386;2023-01-16T09:31:38;2.17;;;0.80;;
14472;SDS011;7322;50.872;4.386;2023-01-16T09:34:05;1.10;;;0.90;;
14472;SDS011;7322;50.872;4.386;2023-01-16T09:36:33;2.17;;;0.80;;
14472;SDS011;7322;50.872;4.386;2023-01-16T09:39:06;1.73;;;1.03;;
14472;SDS011;7322;50.872;4.386;2023-01-16T09:41:34;3.63;;;1.00;;
14472;SDS011;7322;50.872;4.386;2023-01-16T09:44:32;1.13;;;0.80;;
14472;SDS011;7322;50.872;4.386;2023-01-16T09:47:00;1.60;;;0.90;;
14472;SDS011;7322;50.872;4.386;2023-01-16T09:49:31;1.33;;;0.63;;
14472;SDS011;7322;50.872;4.386;2023-01-16T09:52:09;1.17;;;0.80;;
14472;SDS011;7322;50.872;4.386;2023-01-16T10:01:10;2.90;;;0.70;;
14472;SDS011;7322;50.872;4.386;2023-01-16T10:03:48;1.43;;;0.80;;
14472;SDS011;7322;50.872;4.386;2023-01-16T10:06:20;2.87;;;0.80;;
14472;SDS011;7322;50.872;4.386;2023-01-16T10:08:54;1.20;;;0.77;;
14472;SDS011;7322;50.872;4.386;2023-01-16T10:11:35;1.37;;;0.83;;
14472;SDS011;7322;50.872;4.386;2023-01-16T10:17:14;0.90;;;0.70;;
14472;SDS011;7322;50.872;4.386;2023-01-16T10:19:50;1.87;;;0.77;;
14472;SDS011;7322;50.872;4.386;2023-01-16T10:22:39;1.73;;;0.80;;
14472;SDS011;7322;50.872;4.386;2023-01-16T10:25:29;0.90;;;0.60;;
14472;SDS011;7322;50.872;4.386;2023-01-16T10:28:06;3.73;;;0.90;;
14472;SDS011;7322;50.872;4.386;2023-01-16T10:30:49;1.27;;;0.80;;
14472;SDS011;7322;50.872;4.386;2023-01-16T10:33:22;3.83;;;0.80;;
14472;SDS011;7322;50.872;4.386;2023-01-16T10:35:57;1.00;;;0.80;;
14472;SDS011;7322;50.872;4.386;2023-01-16T10:38:33;0.70;;;0.60;;
14472;SDS011;7322;50.872;4.386;2023-01-16T10:41:22;2.00;;;0.70;;
14472;SDS011;7322;50.872;4.386;2023-01-16T10:50:36;4.53;;;0.70;;
14472;SDS011;7322;50.872;4.386;2023-01-16T10:55:55;1.77;;;0.73;;
14472;SDS011;7322;50.872;4.386;2023-01-16T10:58:38;2.07;;;0.70;;
14472;SDS011;7322;50.872;4.386;2023-01-16T11:01:10;0.93;;;0.70;;
14472;SDS011;7322;50.872;4.386;2023-01-16T11:03:43;0.90;;;0.70;;
14472;SDS011;7322;50.872;4.386;2023-01-16T11:06:26;0.90;;;0.80;;
14472;SDS011;7322;50.872;4.386;2023-01-16T11:09:02;0.73;;;0.70;;
14472;SDS011;7322;50.872;4.386;2023-01-16T11:11:44;1.00;;;0.63;;
14472;SDS011;7322;50.872;4.386;2023-01-16T11:14:45;1.17;;;0.70;;
14472;SDS011;7322;50.872;4.386;2023-01-16T11:17:50;0.93;;;0.50;;
14472;SDS011;7322;50.872;4.386;2023-01-16T11:20:51;1.27;;;0.70;;
14472;SDS011;7322;50.872;4.386;2023-01-16T11:23:38;1.10;;;0.60;;
14472;SDS011;7322;50.872;4.386;2023-01-16T11:26:08;1.40;;;0.63;;
14472;SDS011;7322;50.872;4.386;2023-01-16T11:28:45;1.00;;;0.60;;
14472;SDS011;7322;50.872;4.386;2023-01-16T11:36:38;1.07;;;0.73;;
14472;SDS011;7322;50.872;4.386;2023-01-16T11:42:04;0.67;;;0.50;;
14472;SDS011;7322;50.872;4.386;2023-01-16T11:45:13;2.00;;;0.70;;
14472;SDS011;7322;50.872;4.386;2023-01-16T11:48:04;1.00;;;0.70;;
14472;SDS011;7322;50.872;4.386;2023-01-16T11:53:37;1.40;;;0.70;;
14472;SDS011;7322;50.872;4.386;2023-01-16T11:56:11;2.07;;;0.60;;
14472;SDS011;7322;50.872;4.386;2023-01-16T11:59:13;1.13;;;0.60;;
14472;SDS011;7322;50.872;4.386;2023-01-16T12:04:55;0.87;;;0.70;;
14472;SDS011;7322;50.872;4.386;2023-01-16T12:07:57;0.93;;;0.63;;
14472;SDS011;7322;50.872;4.386;2023-01-16T12:10:35;1.13;;;0.70;;
14472;SDS011;7322;50.872;4.386;2023-01-16T12:13:11;1.93;;;0.80;;
14472;SDS011;7322;50.872;4.386;2023-01-16T12:16:01;1.20;;;0.60;;
14472;SDS011;7322;50.872;4.386;2023-01-16T12:18:43;1.50;;;0.70;;
14472;SDS011;7322;50.872;4.386;2023-01-16T12:21:19;0.87;;;0.60;;
14472;SDS011;7322;50.872;4.386;2023-01-16T12:24:05;1.60;;;0.80;;
14472;SDS011;7322;50.872;4.386;2023-01-16T12:26:46;1.50;;;0.60;;
14472;SDS011;7322;50.872;4.386;2023-01-16T12:29:41;1.83;;;0.60;;
14472;SDS011;7322;50.872;4.386;2023-01-16T12:35:27;1.10;;;0.73;;
14472;SDS011;7322;50.872;4.386;2023-01-16T12:38:10;1.53;;;0.60;;
14472;SDS011;7322;50.872;4.386;2023-01-16T12:47:32;1.00;;;0.70;;
14472;SDS011;7322;50.872;4.386;2023-01-16T12:50:16;1.10;;;0.60;;
14472;SDS011;7322;50.872;4.386;2023-01-16T12:53:02;1.27;;;0.70;;
14472;SDS011;7322;50.872;4.386;2023-01-16T12:56:13;0.90;;;0.67;;
14472;SDS011;7322;50.872;4.386;2023-01-16T12:58:57;3.17;;;0.70;;
14472;SDS011;7322;50.872;4.386;2023-01-16T13:01:30;1.27;;;0.50;;
14472;SDS011;7322;50.872;4.386;2023-01-16T13:07:00;1.00;;;0.60;;
14472;SDS011;7322;50.872;4.386;2023-01-16T13:09:39;1.27;;;0.60;;
14472;SDS011;7322;50.872;4.386;2023-01-16T13:12:14;0.87;;;0.67;;
14472;SDS011;7322;50.872;4.386;2023-01-16T13:21:10;0.50;;;0.40;;
14472;SDS011;7322;50.872;4.386;2023-01-16T13:23:44;1.57;;;0.70;;
14472;SDS011;7322;50.872;4.386;2023-01-16T13:26:15;1.97;;;0.60;;
14472;SDS011;7322;50.872;4.386;2023-01-16T13:28:50;1.33;;;0.83;;
14472;SDS011;7322;50.872;4.386;2023-01-16T13:31:30;2.43;;;0.60;;
14472;SDS011;7322;50.872;4.386;2023-01-16T13:34:02;1.20;;;0.70;;
14472;SDS011;7322;50.872;4.386;2023-01-16T13:42:50;0.93;;;0.60;;
14472;SDS011;7322;50.872;4.386;2023-01-16T13:45:24;2.10;;;0.70;;
14472;SDS011;7322;50.872;4.386;2023-01-16T13:48:17;1.33;;;0.70;;
14472;SDS011;7322;50.872;4.386;2023-01-16T13:53:20;0.67;;;0.53;;
14472;SDS011;7322;50.872;4.386;2023-01-16T13:55:50;0.77;;;0.50;;
14472;SDS011;7322;50.872;4.386;2023-01-16T13:58:41;1.20;;;0.67;;
14472;SDS011;7322;50.872;4.386;2023-01-16T14:07:48;2.30;;;0.77;;
14472;SDS011;7322;50.872;4.386;2023-01-16T14:10:40;2.63;;;0.80;;
14472;SDS011;7322;50.872;4.386;2023-01-16T14:13:20;2.87;;;0.90;;
14472;SDS011;7322;50.872;4.386;2023-01-16T14:19:19;1.27;;;0.60;;
14472;SDS011;7322;50.872;4.386;2023-01-16T14:21:49;2.67;;;0.70;;
14472;SDS011;7322;50.872;4.386;2023-01-16T14:25:13;1.63;;;0.70;;
14472;SDS011;7322;50.872;4.386;2023-01-16T14:27:47;1.57;;;0.70;;
14472;SDS011;7322;50.872;4.386;2023-01-16T14:30:24;1.63;;;0.80;;
14472;SDS011;7322;50.872;4.386;2023-01-16T14:32:57;1.17;;;0.63;;
14472;SDS011;7322;50.872;4.386;2023-01-16T14:35:40;2.40;;;0.70;;
14472;SDS011;7322;50.872;4.386;2023-01-16T14:38:21;1.53;;;0.70;;
14472;SDS011;7322;50.872;4.386;2023-01-16T14:40:52;0.80;;;0.60;;
14472;SDS011;7322;50.872;4.386;2023-01-16T14:43:43;1.20;;;0.80;;
14472;SDS011;7322;50.872;4.386;2023-01-16T14:58:54;1.17;;;0.63;;
14472;SDS011;7322;50.872;4.386;2023-01-16T15:07:50;2.20;;;0.80;;
14472;SDS011;7322;50.872;4.386;2023-01-16T15:10:29;1.50;;;0.67;;
14472;SDS011;7322;50.872;4.386;2023-01-16T15:16:02;1.93;;;0.70;;
14472;SDS011;7322;50.872;4.386;2023-01-16T15:18:40;1.13;;;0.60;;
14472;SDS011;7322;50.872;4.386;2023-01-16T15:21:45;0.73;;;0.60;;
14472;SDS011;7322;50.872;4.386;2023-01-16T15:24:34;2.23;;;0.70;;
14472;SDS011;7322;50.872;4.386;2023-01-16T15:27:04;2.47;;;0.70;;
14472;SDS011;7322;50.872;4.386;2023-01-16T15:29:42;3.00;;;0.63;;
14472;SDS011;7322;50.872;4.386;2023-01-16T15:32:19;1.30;;;0.70;;
14472;SDS011;7322;50.872;4.386;2023-01-16T15:35:03;5.00;;;0.80;;
14472;SDS011;7322;50.872;4.386;2023-01-16T15:37:35;3.80;;;1.13;;
14472;SDS011;7322;50.872;4.386;2023-01-16T15:43:01;4.00;;;1.03;;
14472;SDS011;7322;50.872;4.386;2023-01-16T15:49:14;1.77;;;0.90;;
14472;SDS011;7322;50.872;4.386;2023-01-16T15:51:56;1.50;;;0.90;;
14472;SDS011;7322;50.872;4.386;2023-01-16T15:54:35;1.20;;;0.90;;
14472;SDS011;7322;50.872;4.386;2023-01-16T15:57:13;1.13;;;0.70;;
14472;SDS011;7322;50.872;4.386;2023-01-16T16:02:50;1.87;;;0.97;;
14472;SDS011;7322;50.872;4.386;2023-01-16T16:05:38;1.00;;;0.90;;
14472;SDS011;7322;50.872;4.386;2023-01-16T16:11:40;4.13;;;0.90;;
14472;SDS011;7322;50.872;4.386;2023-01-16T16:14:31;1.67;;;1.00;;
14472;SDS011;7322;50.872;4.386;2023-01-16T16:17:18;5.17;;;0.80;;
14472;SDS011;7322;50.872;4.386;2023-01-16T16:23:11;12.83;;;1.30;;
14472;SDS011;7322;50.872;4.386;2023-01-16T16:25:40;2.40;;;0.70;;
14472;SDS011;7322;50.872;4.386;2023-01-16T16:31:09;1.33;;;0.70;;
14472;SDS011;7322;50.872;4.386;2023-01-16T16:33:51;2.53;;;0.83;;
14472;SDS011;7322;50.872;4.386;2023-01-16T16:36:33;2.50;;;0.73;;
14472;SDS011;7322;50.872;4.386;2023-01-16T16:39:25;1.50;;;0.80;;
14472;SDS011;7322;50.872;4.386;2023-01-16T16:42:18;1.43;;;0.70;;
14472;SDS011;7322;50.872;4.386;2023-01-16T16:51:16;1.73;;;0.83;;
14472;SDS011;7322;50.872;4.386;2023-01-16T16:54:03;2.63;;;0.90;;
14472;SDS011;7322;50.872;4.386;2023-01-16T16:56:34;1.03;;;0.80;;
14472;SDS011;7322;50.872;4.386;2023-01-16T16:59:03;1.23;;;0.70;;
14472;SDS011;7322;50.872;4.386;2023-01-16T17:01:52;1.27;;;0.77;;
14472;SDS011;7322;50.872;4.386;2023-01-16T17:04:26;1.77;;;0.70;;
14472;SDS011;7322;50.872;4.386;2023-01-16T17:06:54;1.23;;;0.80;;
14472;SDS011;7322;50.872;4.386;2023-01-16T17:09:29;0.90;;;0.80;;
14472;SDS011;7322;50.872;4.386;2023-01-16T17:11:57;1.60;;;0.90;;
14472;SDS011;7322;50.872;4.386;2023-01-16T17:17:02;1.00;;;0.77;;
14472;SDS011;7322;50.872;4.386;2023-01-16T17:19:30;0.80;;;0.70;;
14472;SDS011;7322;50.872;4.386;2023-01-16T17:22:03;1.00;;;0.73;;
14472;SDS011;7322;50.872;4.386;2023-01-16T17:24:39;1.47;;;0.70;;
14472;SDS011;7322;50.872;4.386;2023-01-16T17:27:06;1.33;;;0.90;;
14472;SDS011;7322;50.872;4.386;2023-01-16T17:29:37;1.20;;;0.70;;
14472;SDS011;7322;50.872;4.386;2023-01-16T17:32:14;0.73;;;0.73;;
14472;SDS011;7322;50.872;4.386;2023-01-16T17:34:59;1.60;;;0.80;;
14472;SDS011;7322;50.872;4.386;2023-01-16T17:37:34;0.93;;;0.83;;
14472;SDS011;7322;50.872;4.386;2023-01-16T17:42:34;1.63;;;0.90;;
14472;SDS011;7322;50.872;4.386;2023-01-16T17:45:26;1.10;;;0.90;;
14472;SDS011;7322;50.872;4.386;2023-01-16T17:48:18;2.70;;;0.97;;
14472;SDS011;7322;50.872;4.386;2023-01-16T17:50:55;1.97;;;0.90;;
14472;SDS011;7322;50.872;4.386;2023-01-16T17:56:20;2.03;;;1.07;;
14472;SDS011;7322;50.872;4.386;2023-01-16T17:58:48;1.83;;;1.10;;
14472;SDS011;7322;50.872;4.386;2023-01-16T18:03:51;1.20;;;0.97;;
14472;SDS011;7322;50.872;4.386;2023-01-16T18:06:23;1.57;;;1.20;;
14472;SDS011;7322;50.872;4.386;2023-01-16T18:08:54;1.53;;;1.10;;
14472;SDS011;7322;50.872;4.386;2023-01-16T18:11:27;1.53;;;1.03;;
14472;SDS011;7322;50.872;4.386;2023-01-16T18:14:16;1.10;;;1.00;;
14472;SDS011;7322;50.872;4.386;2023-01-16T18:22:58;1.60;;;1.03;;
14472;SDS011;7322;50.872;4.386;2023-01-16T18:25:26;1.00;;;0.90;;
14472;SDS011;7322;50.872;4.386;2023-01-16T18:28:00;1.30;;;1.00;;
14472;SDS011;7322;50.872;4.386;2023-01-16T18:33:46;1.30;;;0.90;;
14472;SDS011;7322;50.872;4.386;2023-01-16T18:42:19;3.33;;;1.17;;
14472;SDS011;7322;50.872;4.386;2023-01-16T18:48:26;3.73;;;1.30;;
14472;SDS011;7322;50.872;4.386;2023-01-16T18:51:20;4.47;;;1.33;;
14472;SDS011;7322;50.872;4.386;2023-01-16T18:54:09;4.50;;;1.40;;
14472;SDS011;7322;50.872;4.386;2023-01-16T18:56:57;3.20;;;1.53;;
14472;SDS011;7322;50.872;4.386;2023-01-16T18:59:43;5.03;;;1.60;;
14472;SDS011;7322;50.872;4.386;2023-01-16T19:02:43;3.87;;;1.50;;
14472;SDS011;7322;50.872;4.386;2023-01-16T19:05:23;2.87;;;1.40;;
14472;SDS011;7322;50.872;4.386;2023-01-16T19:07:57;2.63;;;1.30;;
14472;SDS011;7322;50.872;4.386;2023-01-16T19:10:38;3.77;;;1.40;;
14472;SDS011;7322;50.872;4.386;2023-01-16T19:13:05;2.87;;;1.33;;
14472;SDS011;7322;50.872;4.386;2023-01-16T19:15:38;2.53;;;1.30;;
14472;SDS011;7322;50.872;4.386;2023-01-16T19:18:29;1.93;;;1.20;;
14472;SDS011;7322;50.872;4.386;2023-01-16T19:21:01;1.67;;;1.13;;
14472;SDS011;7322;50.872;4.386;2023-01-16T19:23:33;3.13;;;1.13;;
14472;SDS011;7322;50.872;4.386;2023-01-16T19:28:34;2.80;;;1.47;;
14472;SDS011;7322;50.872;4.386;2023-01-16T19:33:44;2.37;;;1.20;;
14472;SDS011;7322;50.872;4.386;2023-01-16T19:36:18;3.57;;;1.50;;
14472;SDS011;7322;50.872;4.386;2023-01-16T19:41:50;3.73;;;1.37;;
14472;SDS011;7322;50.872;4.386;2023-01-16T19:44:34;3.47;;;1.37;;
14472;SDS011;7322;50.872;4.386;2023-01-16T19:47:20;3.10;;;1.53;;
14472;SDS011;7322;50.872;4.386;2023-01-16T19:49:48;2.27;;;1.27;;
14472;SDS011;7322;50.872;4.386;2023-01-16T19:55:18;2.23;;;1.40;;
14472;SDS011;7322;50.872;4.386;2023-01-16T20:00:33;3.27;;;1.60;;